Time;durP1;ratioP1;P1;durP2;ratioP2;P2;SDS_P1;SDS_P2;PMS_P1;PMS_P2;Temp;Humidity;BMP_temperature;BMP_pressure;BME280_temperature;BME280_humidity;BME280_pressure;Samples;Min_cycle;Max_cycle;Signal;HPM_P1;HPM_P2
2023/01/05 00:01:04;;;;;;;93.63;54.08;;;128.50;2252.80;;;;;;5091645;28;20057;-61
2023/01/05 00:03:30;;;;;;;176.73;102.82;;;128.50;2252.80;;;;;;5091760;28;20032;-66
2023/01/05 00:06:01;;;;;;;227.20;134.60;;;128.50;2252.80;;;;;;5091848;28;20077;-61
2023/01/05 00:08:27;;;;;;;253.43;149.20;;;128.50;2252.80;;;;;;5091205;28;20058;-60
2023/01/05 00:24:33;;;;;;;154.93;97.68;;;128.40;2252.80;;;;;;5091426;28;20039;-62
2023/01/05 00:26:58;;;;;;;137.30;82.60;;;128.40;2252.80;;;;;;5091035;28;20462;-65
2023/01/05 00:29:24;;;;;;;108.13;65.07;;;128.40;2252.80;;;;;;5091758;28;20047;-60
2023/01/05 00:31:50;;;;;;;75.13;47.08;;;128.30;2252.80;;;;;;5091814;28;20024;-59
2023/01/05 00:34:15;;;;;;;65.65;42.45;;;128.30;2252.80;;;;;;5093046;28;20103;-60
2023/01/05 00:36:41;;;;;;;47.83;32.78;;;128.80;2252.80;;;;;;5092737;28;20085;-66
2023/01/05 00:39:06;;;;;;;39.13;26.75;;;128.10;2252.80;;;;;;5092589;28;20119;-66
2023/01/05 00:41:32;;;;;;;45.70;32.88;;;128.10;2252.80;;;;;;5091847;28;20039;-64
2023/01/05 00:43:58;;;;;;;58.45;34.90;;;128.20;2252.80;;;;;;5092685;28;20020;-63
2023/01/05 00:46:23;;;;;;;50.75;30.60;;;128.20;2252.80;;;;;;5092613;28;20044;-62
2023/01/05 00:48:49;;;;;;;36.55;22.88;;;128.30;2252.80;;;;;;5092628;28;20035;-63
2023/01/05 00:51:15;;;;;;;30.67;20.08;;;128.10;2252.80;;;;;;5092914;28;20027;-63
2023/01/05 00:53:40;;;;;;;24.73;18.42;;;128.10;2252.80;;;;;;5092626;28;20038;-63
2023/01/05 00:56:06;;;;;;;25.38;15.68;;;128.10;2252.80;;;;;;5092623;28;20035;-63
2023/01/05 00:58:32;;;;;;;31.63;19.15;;;128.00;2252.80;;;;;;5092433;28;20040;-63
2023/01/05 01:00:58;;;;;;;29.35;20.27;;;128.00;2252.80;;;;;;5092311;28;20036;-63
2023/01/05 01:03:23;;;;;;;33.85;21.08;;;128.00;2252.80;;;;;;5092295;28;20032;-62
2023/01/05 01:05:56;;;;;;;35.20;24.05;;;128.00;2252.80;;;;;;5092380;28;20032;-63
2023/01/05 01:08:22;;;;;;;27.90;18.15;;;128.00;2252.80;;;;;;5092390;28;20032;-64
2023/01/05 01:10:47;;;;;;;32.10;21.17;;;128.00;2252.80;;;;;;5091792;28;20085;-64
2023/01/05 01:13:13;;;;;;;36.65;22.60;;;103.10;2227.20;;;;;;5092015;28;20032;-63
2023/01/05 01:15:39;;;;;;;29.48;18.63;;;102.80;2227.20;;;;;;5091996;28;20023;-63
2023/01/05 01:18:04;;;;;;;31.45;19.23;;;102.80;2227.20;;;;;;5091224;28;20039;-63
2023/01/05 01:20:30;;;;;;;32.63;21.10;;;102.80;2227.20;;;;;;5091095;28;20028;-64
2023/01/05 01:22:59;;;;;;;38.35;25.52;;;102.90;2227.20;;;;;;5091698;28;20067;-63
2023/01/05 01:25:25;;;;;;;39.38;25.65;;;103.00;2227.20;;;;;;5091286;28;20150;-63
2023/01/05 01:27:51;;;;;;;41.03;24.15;;;103.00;2227.20;;;;;;5090687;28;20028;-64
2023/01/05 01:30:16;;;;;;;30.30;20.27;;;103.00;2227.20;;;;;;5090650;28;20166;-62
2023/01/05 01:32:42;;;;;;;35.65;22.55;;;103.00;2227.20;;;;;;5091230;28;20020;-63
2023/01/05 01:35:08;;;;;;;25.55;17.88;;;103.00;2227.20;;;;;;5090208;28;20024;-64
2023/01/05 01:37:34;;;;;;;30.02;21.88;;;103.00;2227.20;;;;;;5090802;28;20031;-63
2023/01/05 01:39:59;;;;;;;35.85;23.13;;;103.00;2227.20;;;;;;5089694;28;20032;-63
2023/01/05 01:42:25;;;;;;;37.92;24.10;;;102.90;2227.20;;;;;;5088094;28;20028;-63
2023/01/05 01:44:57;;;;;;;33.47;23.08;;;102.80;2227.20;;;;;;5090812;28;20048;-64
2023/01/05 01:47:37;;;;;;;41.42;26.00;;;102.80;2227.20;;;;;;5091211;28;20056;-63
2023/01/05 01:50:14;;;;;;;38.40;26.02;;;102.80;2227.20;;;;;;5091017;28;20058;-63
2023/01/05 01:52:40;;;;;;;39.35;23.40;;;102.80;2227.20;;;;;;5090813;28;20028;-66
2023/01/05 01:55:06;;;;;;;37.95;26.27;;;102.80;2227.20;;;;;;5088114;28;20032;-64
2023/01/05 01:57:33;;;;;;;38.83;24.60;;;102.90;2227.20;;;;;;5090617;28;20024;-65
2023/01/05 02:00:02;;;;;;;42.17;27.88;;;102.90;2227.20;;;;;;5088532;28;20046;-63
2023/01/05 02:02:29;;;;;;;37.80;23.48;;;102.90;2227.20;;;;;;5091404;28;20022;-63
2023/01/05 02:04:59;;;;;;;45.10;28.23;;;103.00;2227.20;;;;;;5091266;28;20035;-63
2023/01/05 02:07:27;;;;;;;41.13;28.70;;;103.00;2227.20;;;;;;5089447;28;20390;-63
2023/01/05 02:09:53;;;;;;;42.38;28.13;;;103.00;2227.20;;;;;;5091060;28;20043;-64
2023/01/05 02:12:31;;;;;;;31.75;18.98;;;103.00;2227.20;;;;;;5090649;28;20036;-66
2023/01/05 02:15:34;;;;;;;27.52;18.35;;;103.10;2227.20;;;;;;5091048;28;20040;-64
2023/01/05 02:18:31;;;;;;;54.97;33.88;;;103.20;2227.20;;;;;;5090670;28;20032;-65
2023/01/05 02:21:05;;;;;;;45.72;28.80;;;103.20;2227.20;;;;;;5091093;28;20390;-63
2023/01/05 02:23:55;;;;;;;104.60;60.97;;;103.30;2227.20;;;;;;5090624;28;20382;-64
2023/01/05 02:26:34;;;;;;;91.05;52.88;;;103.20;2227.20;;;;;;5090466;28;20024;-64
2023/01/05 02:29:26;;;;;;;78.50;47.60;;;103.20;2227.20;;;;;;5090933;28;20028;-64
2023/01/05 02:31:58;;;;;;;147.60;83.05;;;103.10;2227.20;;;;;;5090572;28;20462;-64
2023/01/05 02:34:38;;;;;;;81.18;47.65;;;103.10;2227.20;;;;;;5091279;28;20020;-66
2023/01/05 02:37:21;;;;;;;96.65;62.78;;;103.10;2227.20;;;;;;5091553;28;20104;-64
2023/01/05 02:40:02;;;;;;;78.15;56.65;;;103.20;2227.20;;;;;;5090692;28;20377;-65
2023/01/05 02:42:31;;;;;;;107.95;74.75;;;103.10;2227.20;;;;;;5090336;28;20036;-63
2023/01/05 02:45:04;;;;;;;106.50;73.57;;;103.20;2227.20;;;;;;5092339;28;20044;-65
2023/01/05 02:47:42;;;;;;;76.50;52.13;;;103.20;2227.20;;;;;;5091143;28;20027;-64
2023/01/05 02:50:31;;;;;;;84.60;51.88;;;103.20;2227.20;;;;;;5091208;28;20028;-64
2023/01/05 02:53:17;;;;;;;55.38;38.13;;;103.20;2227.20;;;;;;5090372;28;20458;-64
2023/01/05 02:55:58;;;;;;;54.60;38.47;;;103.30;2227.20;;;;;;5091674;28;20081;-63
2023/01/05 02:58:35;;;;;;;49.72;32.90;;;103.30;2227.20;;;;;;5090161;28;20043;-63
2023/01/05 03:01:09;;;;;;;142.18;79.80;;;103.30;2227.20;;;;;;5090767;28;20016;-65
2023/01/05 03:03:46;;;;;;;135.40;85.65;;;103.10;2227.20;;;;;;5090393;28;20058;-63
2023/01/05 03:06:26;;;;;;;143.88;86.85;;;103.00;2227.20;;;;;;5090509;28;20024;-63
2023/01/05 03:08:56;;;;;;;99.60;59.10;;;103.00;2227.20;;;;;;5090139;28;20028;-64
2023/01/05 03:14:34;;;;;;;75.53;49.33;;;103.00;2227.20;;;;;;5090337;28;20382;-65
2023/01/05 03:17:00;;;;;;;72.47;43.83;;;103.00;2227.20;;;;;;5090027;28;20032;-64
2023/01/05 03:19:40;;;;;;;55.60;33.78;;;103.00;2227.20;;;;;;5090280;28;20089;-63
2023/01/05 03:36:29;;;;;;;27.80;16.77;;;103.10;2227.20;;;;;;5090444;28;20034;-64
2023/01/05 03:38:57;;;;;;;20.83;13.35;;;103.10;2227.20;;;;;;5089732;28;20071;-64
2023/01/05 03:41:25;;;;;;;35.58;22.65;;;102.90;2227.20;;;;;;5089945;28;20028;-64
2023/01/05 03:43:52;;;;;;;68.25;42.10;;;102.90;2227.20;;;;;;5089539;28;20036;-64
2023/01/05 03:46:20;;;;;;;89.63;54.65;;;102.90;2227.20;;;;;;5089566;28;20056;-64
2023/01/05 03:48:46;;;;;;;106.35;67.65;;;102.90;2227.20;;;;;;5089908;28;20024;-64
2023/01/05 03:51:14;;;;;;;133.40;90.40;;;102.60;2227.20;;;;;;5089730;28;20067;-65
2023/01/05 03:53:39;;;;;;;48.40;30.88;;;102.80;2227.20;;;;;;5089495;28;20035;-64
2023/01/05 03:56:06;;;;;;;30.63;20.25;;;102.60;2227.20;;;;;;5089586;28;20055;-64
2023/01/05 03:58:32;;;;;;;22.35;12.82;;;102.60;2227.20;;;;;;5090058;28;20036;-64
2023/01/05 04:00:58;;;;;;;16.60;10.18;;;102.60;2227.20;;;;;;5089802;28;20028;-64
2023/01/05 04:03:23;;;;;;;13.98;9.05;;;102.70;2227.20;;;;;;5089870;28;20028;-63
2023/01/05 04:05:49;;;;;;;15.88;9.52;;;102.80;2227.20;;;;;;5090323;28;20029;-64
2023/01/05 04:08:15;;;;;;;16.25;10.85;;;102.80;2227.20;;;;;;5093568;28;20363;-64
2023/01/05 04:10:41;;;;;;;20.10;11.68;;;102.90;2227.20;;;;;;5092976;28;20032;-63
2023/01/05 04:13:07;;;;;;;22.60;13.15;;;102.80;2227.20;;;;;;5093174;28;20028;-64
2023/01/05 04:15:33;;;;;;;22.40;13.73;;;102.90;2227.20;;;;;;5093568;28;20080;-63
2023/01/05 04:17:59;;;;;;;18.60;11.82;;;102.90;2227.20;;;;;;5093352;28;20047;-64
2023/01/05 04:20:24;;;;;;;16.95;11.55;;;103.00;2227.20;;;;;;5093370;28;20024;-63
2023/01/05 04:22:50;;;;;;;20.70;10.32;;;102.90;2227.20;;;;;;5092968;28;20039;-64
2023/01/05 04:25:16;;;;;;;15.57;10.10;;;102.80;2227.20;;;;;;5093253;28;20020;-63
2023/01/05 04:27:42;;;;;;;17.58;10.45;;;102.60;2227.20;;;;;;5093006;28;20028;-64
2023/01/05 04:30:08;;;;;;;18.42;11.63;;;102.60;2227.20;;;;;;5093089;28;20024;-64
2023/01/05 04:32:34;;;;;;;19.90;11.68;;;102.60;2227.20;;;;;;5092982;28;20024;-64
2023/01/05 04:35:00;;;;;;;24.42;14.25;;;102.60;2227.20;;;;;;5093097;28;20028;-64
2023/01/05 04:37:25;;;;;;;24.67;14.77;;;102.70;2227.20;;;;;;5093347;28;20504;-63
2023/01/05 04:39:51;;;;;;;23.95;15.70;;;102.70;2227.20;;;;;;5093001;28;20035;-63
2023/01/05 04:42:17;;;;;;;21.60;14.13;;;102.80;2227.20;;;;;;5093244;28;20024;-63
2023/01/05 04:44:43;;;;;;;24.17;14.45;;;102.70;2227.20;;;;;;5093435;28;20083;-63
2023/01/05 04:47:09;;;;;;;30.88;21.52;;;102.70;2227.20;;;;;;5092766;28;20082;-63
2023/01/05 04:49:35;;;;;;;31.02;17.85;;;102.80;2227.20;;;;;;5092715;28;20020;-63
2023/01/05 04:52:01;;;;;;;19.42;12.50;;;102.80;2227.20;;;;;;5093166;28;20111;-64
2023/01/05 04:54:26;;;;;;;31.13;22.10;;;102.80;2227.20;;;;;;5092638;28;20104;-63
2023/01/05 04:56:52;;;;;;;44.60;29.50;;;102.70;2227.20;;;;;;5092646;28;20028;-64
2023/01/05 04:59:18;;;;;;;22.75;15.95;;;102.70;2227.20;;;;;;5093039;28;20039;-64
2023/01/05 05:01:43;;;;;;;20.05;16.33;;;102.70;2227.20;;;;;;5092694;28;20024;-65
2023/01/05 05:04:09;;;;;;;27.00;16.23;;;102.60;2227.20;;;;;;5092281;28;20482;-64
2023/01/05 05:06:35;;;;;;;21.80;13.15;;;102.70;2227.20;;;;;;5092574;28;20039;-63
2023/01/05 05:09:00;;;;;;;15.52;11.00;;;102.70;2227.20;;;;;;5092519;28;20021;-64
2023/01/05 05:11:26;;;;;;;19.08;11.70;;;102.70;2227.20;;;;;;5092651;28;20033;-62
2023/01/05 05:13:52;;;;;;;14.52;9.77;;;102.70;2227.20;;;;;;5092216;28;20111;-63
2023/01/05 05:16:17;;;;;;;14.90;8.65;;;102.60;2227.20;;;;;;5092920;28;20027;-63
2023/01/05 05:18:43;;;;;;;15.57;9.65;;;102.70;2227.20;;;;;;5091538;28;20043;-63
2023/01/05 05:21:09;;;;;;;13.90;9.15;;;102.70;2227.20;;;;;;5092550;28;20099;-64
2023/01/05 05:23:35;;;;;;;17.85;11.07;;;102.80;2227.20;;;;;;5092290;28;20032;-63
2023/01/05 05:26:01;;;;;;;14.13;9.93;;;102.80;2227.20;;;;;;5091969;28;20030;-64
2023/01/05 05:28:27;;;;;;;16.95;11.27;;;102.80;2227.20;;;;;;5092521;28;20436;-63
2023/01/05 05:30:54;;;;;;;20.50;14.50;;;102.80;2227.20;;;;;;5092701;28;20477;-63
2023/01/05 05:33:21;;;;;;;40.67;28.13;;;102.80;2227.20;;;;;;5093265;28;20035;-63
2023/01/05 05:35:46;;;;;;;90.80;59.40;;;102.80;2227.20;;;;;;5095190;28;20024;-64
2023/01/05 05:38:12;;;;;;;76.38;49.63;;;102.70;2227.20;;;;;;5095946;28;20040;-67
2023/01/05 05:40:38;;;;;;;43.97;29.73;;;102.70;2227.20;;;;;;5094845;28;20028;-66
2023/01/05 05:43:03;;;;;;;36.58;25.08;;;102.60;2227.20;;;;;;5096057;28;20032;-63
2023/01/05 05:45:29;;;;;;;31.75;19.17;;;102.60;2227.20;;;;;;5091556;28;20051;-64
2023/01/05 05:47:55;;;;;;;31.95;20.33;;;102.60;2227.20;;;;;;5091806;28;20035;-63
2023/01/05 05:50:20;;;;;;;33.38;20.80;;;102.60;2227.20;;;;;;5091432;28;20436;-63
2023/01/05 05:52:46;;;;;;;24.30;15.25;;;102.60;2227.20;;;;;;5091624;28;20028;-64
2023/01/05 05:55:12;;;;;;;23.98;15.05;;;102.60;2227.20;;;;;;5091283;28;20028;-63
2023/01/05 05:57:38;;;;;;;22.15;15.35;;;102.70;2227.20;;;;;;5091104;28;20093;-64
2023/01/05 06:00:04;;;;;;;19.30;11.45;;;102.70;2227.20;;;;;;5091608;28;20024;-63
2023/01/05 06:02:30;;;;;;;13.55;9.00;;;102.70;2227.20;;;;;;5091625;28;20035;-64
2023/01/05 06:04:56;;;;;;;13.10;8.02;;;102.80;2227.20;;;;;;5091426;28;20098;-64
2023/01/05 06:07:21;;;;;;;21.63;14.00;;;102.80;2227.20;;;;;;5095089;28;20051;-64
2023/01/05 06:09:47;;;;;;;20.63;10.57;;;102.80;2227.20;;;;;;5091036;28;20128;-64
2023/01/05 06:12:13;;;;;;;20.90;12.68;;;103.00;2227.20;;;;;;5093449;28;20028;-65
2023/01/05 06:14:38;;;;;;;16.20;9.75;;;103.00;2227.20;;;;;;5091793;28;20028;-63
2023/01/05 06:17:04;;;;;;;16.63;10.93;;;103.00;2227.20;;;;;;5091101;28;20020;-63
2023/01/05 06:19:30;;;;;;;17.10;11.07;;;103.00;2227.20;;;;;;5091038;28;20047;-63
2023/01/05 06:21:55;;;;;;;22.77;13.68;;;103.00;2227.20;;;;;;5094434;28;20024;-64
2023/01/05 06:24:21;;;;;;;30.55;19.65;;;103.00;2227.20;;;;;;5091080;28;20109;-63
2023/01/05 06:26:47;;;;;;;36.42;25.58;;;102.90;2227.20;;;;;;5091021;28;20031;-64
2023/01/05 06:29:12;;;;;;;55.47;40.40;;;103.10;2227.20;;;;;;5091071;28;20141;-63
2023/01/05 06:31:38;;;;;;;67.47;48.53;;;103.10;2227.20;;;;;;5090947;28;20077;-63
2023/01/05 06:34:04;;;;;;;53.97;37.88;;;103.00;2227.20;;;;;;5090988;28;20374;-63
2023/01/05 06:36:29;;;;;;;44.70;29.20;;;103.00;2227.20;;;;;;5090639;28;20032;-63
2023/01/05 06:38:55;;;;;;;38.88;28.38;;;103.10;2227.20;;;;;;5090745;28;20055;-63
2023/01/05 06:41:21;;;;;;;37.40;25.98;;;103.10;2227.20;;;;;;5090563;28;20032;-63
2023/01/05 06:43:46;;;;;;;45.70;31.40;;;103.20;2227.20;;;;;;5090601;28;20051;-64
2023/01/05 06:46:12;;;;;;;41.58;27.67;;;103.30;2227.20;;;;;;5090443;28;20397;-64
2023/01/05 06:48:38;;;;;;;30.55;23.02;;;103.30;2227.20;;;;;;5090418;28;20031;-64
2023/01/05 06:51:03;;;;;;;61.53;36.15;;;128.10;2252.80;;;;;;5090995;28;20484;-64
2023/01/05 06:53:29;;;;;;;58.22;35.65;;;128.20;2252.80;;;;;;5090540;28;20116;-63
2023/01/05 06:55:55;;;;;;;43.50;26.77;;;128.20;2252.80;;;;;;5090448;28;20020;-64
2023/01/05 06:58:20;;;;;;;59.42;39.30;;;128.40;2252.80;;;;;;5090220;28;20122;-64
2023/01/05 07:00:46;;;;;;;55.88;32.00;;;128.30;2252.80;;;;;;5090972;28;20028;-64
2023/01/05 07:03:13;;;;;;;49.42;29.55;;;128.30;2252.80;;;;;;5090563;28;20024;-63
2023/01/05 07:05:39;;;;;;;35.10;23.00;;;128.30;2252.80;;;;;;5090431;28;20032;-64
2023/01/05 07:08:05;;;;;;;29.23;22.20;;;128.30;2252.80;;;;;;5090656;28;20024;-64
2023/01/05 07:10:31;;;;;;;26.23;16.45;;;128.20;2252.80;;;;;;5090017;28;20036;-65
2023/01/05 07:12:57;;;;;;;28.30;18.15;;;128.40;2252.80;;;;;;5090508;28;20032;-63
2023/01/05 07:15:22;;;;;;;21.33;15.73;;;128.70;2252.80;;;;;;5090516;28;20028;-64
2023/01/05 07:17:48;;;;;;;110.60;58.63;;;128.80;2252.80;;;;;;5090514;28;20088;-63
2023/01/05 07:20:14;;;;;;;76.32;50.40;;;128.90;2252.80;;;;;;5090206;28;20059;-63
2023/01/05 07:22:39;;;;;;;38.22;25.45;;;153.60;2252.80;;;;;;5090293;28;20032;-63
2023/01/05 07:25:06;;;;;;;142.55;72.80;;;153.80;2252.80;;;;;;5090654;28;20028;-61
2023/01/05 07:27:31;;;;;;;54.50;30.25;;;179.30;2252.80;;;;;;5090305;28;20035;-62
2023/01/05 07:29:57;;;;;;;99.57;57.80;;;154.20;2252.80;;;;;;5090323;28;20020;-62
2023/01/05 07:32:23;;;;;;;98.57;63.78;;;154.40;2252.80;;;;;;5090179;28;20039;-61
2023/01/05 07:34:48;;;;;;;150.75;99.82;;;154.30;2252.80;;;;;;5090060;28;20023;-61
2023/01/05 07:37:14;;;;;;;75.32;50.55;;;154.20;2252.80;;;;;;5090093;28;20474;-62
2023/01/05 07:39:40;;;;;;;39.92;29.48;;;154.30;2252.80;;;;;;5089646;28;20131;-62
2023/01/05 07:42:05;;;;;;;113.88;72.65;;;154.50;2252.80;;;;;;5093376;28;20071;-63
2023/01/05 07:44:31;;;;;;;120.30;87.18;;;179.40;2252.80;;;;;;5093714;28;20351;-62
2023/01/05 07:46:57;;;;;;;76.22;52.92;;;179.40;2252.80;;;;;;5093633;28;20032;-62
2023/01/05 07:49:23;;;;;;;60.15;44.78;;;179.50;2252.80;;;;;;5094160;28;20035;-60
2023/01/05 07:51:49;;;;;;;56.75;41.85;;;179.70;2252.80;;;;;;5093831;28;20413;-59
2023/01/05 07:54:15;;;;;;;62.53;46.08;;;179.90;2252.80;;;;;;5094185;28;20066;-60
2023/01/05 07:56:40;;;;;;;85.50;58.83;;;180.10;2252.80;;;;;;5093520;28;20031;-60
2023/01/05 07:59:06;;;;;;;50.67;31.08;;;180.10;2252.80;;;;;;5093737;28;20471;-61
2023/01/05 08:01:32;;;;;;;22.13;16.52;;;204.80;2252.80;;;;;;5093913;28;20031;-62
2023/01/05 08:03:58;;;;;;;56.35;33.67;;;205.00;2252.80;;;;;;5093657;28;20032;-61
2023/01/05 08:06:24;;;;;;;61.25;37.17;;;205.30;2252.80;;;;;;5093498;28;20559;-60
2023/01/05 08:08:49;;;;;;;30.95;19.42;;;205.40;2252.80;;;;;;5093447;28;20076;-61
2023/01/05 08:11:17;;;;;;;73.63;45.88;;;205.40;2252.80;;;;;;5093514;28;20028;-60
2023/01/05 08:13:59;;;;;;;117.20;63.88;;;205.40;2252.80;;;;;;5093553;28;20033;-61
2023/01/05 08:16:30;;;;;;;33.13;22.13;;;205.20;2252.80;;;;;;5093563;28;20024;-61
2023/01/05 08:18:56;;;;;;;29.30;21.10;;;205.50;2252.80;;;;;;5091876;28;20105;-62
2023/01/05 08:21:22;;;;;;;31.48;23.95;;;205.60;2252.80;;;;;;5093568;28;20125;-59
2023/01/05 08:23:49;;;;;;;41.80;28.13;;;205.70;2252.80;;;;;;5091140;28;20149;-61
2023/01/05 08:26:19;;;;;;;29.98;19.85;;;230.50;2252.80;;;;;;5091784;28;20111;-60
2023/01/05 08:28:45;;;;;;;19.65;14.70;;;230.70;2252.80;;;;;;5091774;28;20112;-62
2023/01/05 08:31:39;;;;;;;17.30;11.45;;;230.80;2252.80;;;;;;5091582;28;20051;-60
2023/01/05 08:34:05;;;;;;;17.95;12.38;;;230.70;2252.80;;;;;;5088057;28;20390;-61
2023/01/05 08:36:31;;;;;;;18.58;12.15;;;231.00;2252.80;;;;;;5090179;28;20035;-62
2023/01/05 08:39:00;;;;;;;21.08;13.40;;;256.10;2252.80;;;;;;5089530;28;20128;-61
2023/01/05 08:41:37;;;;;;;18.42;9.75;;;256.20;2252.80;;;;;;5090142;28;20024;-61
2023/01/05 08:44:04;;;;;;;42.00;31.40;;;;;;;;;;5090118;28;20075;-59
2023/01/05 08:46:32;;;;;;;26.42;19.50;;;256.30;2252.80;;;;;;5089234;28;20048;-60
2023/01/05 08:49:00;;;;;;;29.15;19.73;;;256.20;2252.80;;;;;;5089641;28;20031;-63
2023/01/05 08:51:26;;;;;;;17.90;13.88;;;256.20;2252.80;;;;;;5088638;28;20023;-64
2023/01/05 08:53:52;;;;;;;19.88;13.38;;;256.40;2252.80;;;;;;5090016;28;20385;-60
2023/01/05 08:56:19;;;;;;;44.60;34.33;;;282.50;2278.40;;;;;;5089940;28;20482;-62
2023/01/05 08:58:45;;;;;;;77.97;55.38;;;307.80;2304.00;;;;;;5090100;28;20043;-61
2023/01/05 09:01:13;;;;;;;48.13;35.10;;;307.60;2304.00;;;;;;5088876;28;20115;-62
2023/01/05 09:03:39;;;;;;;96.60;68.70;;;307.80;2304.00;;;;;;5088023;28;20077;-62
2023/01/05 09:06:08;;;;;;;65.97;52.72;;;332.80;2329.60;;;;;;5088499;28;20048;-59
2023/01/05 09:08:34;;;;;;;63.65;50.03;;;333.40;2329.60;;;;;;5088648;28;20016;-61
2023/01/05 09:11:20;;;;;;;44.75;39.47;;;384.20;2176.00;;;;;;5087945;28;20556;-61
2023/01/05 09:13:52;;;;;;;56.85;47.65;;;435.20;2022.40;;;;;;5086583;28;20088;-61
2023/01/05 09:16:21;;;;;;;73.68;61.38;;;435.60;1971.20;;;;;;5086817;28;20081;-62
2023/01/05 09:18:48;;;;;;;106.97;93.85;;;461.50;1894.40;;;;;;5086892;28;20119;-62
2023/01/05 09:21:14;;;;;;;49.05;41.28;;;487.00;1817.60;;;;;;5087963;28;20031;-61
2023/01/05 09:23:41;;;;;;;454.83;404.92;;;512.50;1740.80;;;;;;5087610;28;20055;-63
2023/01/05 09:26:09;;;;;;;426.17;380.48;;;487.10;1740.80;;;;;;5087907;28;20016;-61
2023/01/05 09:28:35;;;;;;;556.47;496.20;;;487.30;1715.20;;;;;;5087708;28;20028;-61
2023/01/05 09:31:30;;;;;;;403.23;358.65;;;461.70;1792.00;;;;;;5087660;28;20115;-63
2023/01/05 09:33:57;;;;;;;354.05;316.48;;;460.90;1843.20;;;;;;5026342;28;20067;-61
2023/01/05 09:36:24;;;;;;;292.80;252.40;;;436.10;1843.20;;;;;;5026085;28;20056;-62
2023/01/05 09:38:55;;;;;;;244.95;213.88;;;435.50;1894.40;;;;;;5025459;28;20052;-61
2023/01/05 09:41:37;;;;;;;230.20;200.82;;;409.70;1945.60;;;;;;5018582;28;20025;-62
2023/01/05 09:44:29;;;;;;;267.02;226.30;;;359.30;2048.00;;;;;;5025573;28;20324;-62
2023/01/05 09:47:17;;;;;;;238.65;196.95;;;359.00;2099.20;;;;;;5025834;28;20514;-61
2023/01/05 09:49:45;;;;;;;261.40;215.45;;;359.20;2099.20;;;;;;5023780;28;20037;-61
2023/01/05 09:52:12;;;;;;;383.90;293.85;;;359.00;2150.40;;;;;;5025588;28;20064;-61
2023/01/05 09:54:39;;;;;;;344.23;268.10;;;358.40;2252.80;;;;;;5023090;28;20117;-63
2023/01/05 09:57:13;;;;;;;332.23;260.23;;;333.20;2329.60;;;;;;5024991;28;20075;-61
2023/01/05 09:59:45;;;;;;;313.88;248.10;;;332.80;2329.60;;;;;;5026674;28;20072;-63
2023/01/05 10:02:19;;;;;;;298.45;235.35;;;307.60;2304.00;;;;;;5026819;28;20096;-60
2023/01/05 10:04:46;;;;;;;436.90;316.20;;;307.20;2304.00;;;;;;5026560;28;20087;-62
2023/01/05 10:07:18;;;;;;;324.88;249.02;;;307.20;2304.00;;;;;;5026421;28;20031;-61
2023/01/05 10:09:45;;;;;;;293.08;228.90;;;307.60;2304.00;;;;;;5041955;28;20478;-61
2023/01/05 10:15:16;;;;;;;326.10;249.07;;;282.40;2278.40;;;;;;5089631;28;20034;-60
2023/01/05 10:17:43;;;;;;;263.98;202.85;;;282.20;2278.40;;;;;;5089014;28;20020;-61
2023/01/05 10:20:49;;;;;;;250.38;199.95;;;282.00;2278.40;;;;;;5089072;28;20096;-62
2023/01/05 10:23:33;;;;;;;235.60;181.65;;;281.90;2278.40;;;;;;5006515;28;20057;-59
2023/01/05 10:26:20;;;;;;;236.50;180.13;;;281.60;2278.40;;;;;;5006699;28;20037;-61
2023/01/05 10:28:51;;;;;;;241.45;183.07;;;256.90;2252.80;;;;;;5006668;28;20033;-61
2023/01/05 10:31:26;;;;;;;213.40;165.73;;;256.90;2252.80;;;;;;5006033;28;20046;-61
2023/01/05 10:34:05;;;;;;;242.18;181.57;;;256.80;2252.80;;;;;;5002864;28;20116;-61
2023/01/05 10:36:36;;;;;;;242.07;180.20;;;256.90;2252.80;;;;;;4999568;28;20033;-61
2023/01/05 10:39:23;;;;;;;222.43;163.65;;;281.60;2278.40;;;;;;5004981;28;20041;-60
2023/01/05 10:42:11;;;;;;;206.25;160.23;;;281.70;2278.40;;;;;;5002298;28;20819;-62
2023/01/05 10:44:54;;;;;;;265.63;206.07;;;281.60;2278.40;;;;;;5003208;28;20030;-61
2023/01/05 10:47:22;;;;;;;214.45;163.90;;;281.60;2278.40;;;;;;5003740;28;20030;-64
2023/01/05 10:49:48;;;;;;;240.18;184.30;;;281.60;2278.40;;;;;;5004603;28;20038;-61
2023/01/05 10:52:17;;;;;;;228.98;173.02;;;281.70;2278.40;;;;;;5005109;28;20528;-60
2023/01/05 10:54:47;;;;;;;202.52;156.35;;;281.80;2278.40;;;;;;5005106;28;20077;-61
2023/01/05 10:57:27;;;;;;;250.18;188.98;;;281.70;2278.40;;;;;;5045597;28;20032;-60
2023/01/05 10:59:57;;;;;;;185.68;142.00;;;281.60;2278.40;;;;;;5085073;28;20477;-60
2023/01/05 11:02:27;;;;;;;166.50;125.03;;;281.80;2278.40;;;;;;5086998;28;20016;-60
2023/01/05 11:05:02;;;;;;;155.80;119.70;;;282.00;2278.40;;;;;;5084811;28;20027;-61
2023/01/05 11:07:27;;;;;;;158.75;122.13;;;282.20;2278.40;;;;;;5087249;28;20023;-61
2023/01/05 11:09:53;;;;;;;189.82;145.07;;;282.30;2278.40;;;;;;5087487;28;20024;-61
2023/01/05 11:12:22;;;;;;;186.95;143.80;;;282.20;2278.40;;;;;;5088261;28;20442;-63
2023/01/05 11:14:53;;;;;;;196.32;144.48;;;282.00;2278.40;;;;;;5087491;28;20028;-63
2023/01/05 11:17:23;;;;;;;191.90;148.65;;;282.00;2278.40;;;;;;5087783;28;20066;-60
2023/01/05 11:19:51;;;;;;;205.80;156.70;;;282.00;2278.40;;;;;;5088170;28;20036;-61
2023/01/05 11:22:29;;;;;;;209.13;155.50;;;282.10;2278.40;;;;;;5088429;28;20043;-62
2023/01/05 11:25:20;;;;;;;193.27;145.18;;;282.20;2278.40;;;;;;5088368;28;20089;-61
2023/01/05 11:28:03;;;;;;;169.00;127.25;;;282.30;2278.40;;;;;;5087949;28;20028;-61
2023/01/05 11:30:29;;;;;;;201.50;151.20;;;282.40;2278.40;;;;;;5088049;28;20056;-61
2023/01/05 11:32:57;;;;;;;198.57;144.80;;;282.50;2278.40;;;;;;5088402;28;20550;-61
2023/01/05 11:35:26;;;;;;;195.82;144.85;;;282.50;2278.40;;;;;;5088232;28;20077;-62
2023/01/05 11:37:52;;;;;;;212.65;156.77;;;307.20;2304.00;;;;;;5088220;28;20063;-60
2023/01/05 11:40:20;;;;;;;186.85;136.60;;;307.50;2304.00;;;;;;5087672;28;20064;-62
2023/01/05 11:42:46;;;;;;;167.32;131.30;;;307.80;2304.00;;;;;;5088071;28;20117;-62
2023/01/05 11:45:23;;;;;;;185.65;139.90;;;332.80;2329.60;;;;;;5087677;28;20052;-60
2023/01/05 11:47:56;;;;;;;177.27;127.55;;;332.80;2329.60;;;;;;5087653;28;20059;-61
2023/01/05 11:50:37;;;;;;;198.00;134.98;;;308.00;2304.00;;;;;;5068012;28;20024;-60
2023/01/05 11:53:02;;;;;;;174.35;119.32;;;308.00;2304.00;;;;;;5076370;28;20036;-61
2023/01/05 11:55:40;;;;;;;147.40;105.70;;;308.00;2304.00;;;;;;5087708;28;20466;-61
2023/01/05 11:58:24;;;;;;;135.70;103.75;;;308.00;2304.00;;;;;;5088050;28;20466;-61
2023/01/05 12:01:15;;;;;;;145.13;105.45;;;308.10;2304.00;;;;;;5087515;28;20025;-60
2023/01/05 12:03:56;;;;;;;120.05;87.47;;;308.10;2304.00;;;;;;5086053;28;20020;-62
2023/01/05 12:06:59;;;;;;;97.40;70.65;;;332.90;2329.60;;;;;;5086227;28;20024;-60
2023/01/05 12:09:28;;;;;;;103.25;79.50;;;332.90;2329.60;;;;;;5087993;28;20545;-61
2023/01/05 12:12:25;;;;;;;106.80;81.07;;;333.00;2329.60;;;;;;5087616;28;20060;-60
2023/01/05 12:15:06;;;;;;;101.60;76.85;;;333.00;2329.60;;;;;;5087685;28;20028;-61
2023/01/05 12:17:54;;;;;;;115.97;79.50;;;333.00;2329.60;;;;;;5086031;28;20359;-61
2023/01/05 12:20:55;;;;;;;123.03;92.15;;;333.10;2329.60;;;;;;5084278;28;20046;-60
2023/01/05 12:23:52;;;;;;;125.03;89.88;;;333.00;2329.60;;;;;;5087924;28;20576;-61
2023/01/05 12:26:24;;;;;;;126.25;95.70;;;333.00;2329.60;;;;;;5089533;28;20012;-60
2023/01/05 12:29:15;;;;;;;185.95;129.65;;;332.90;2329.60;;;;;;5092780;28;20020;-60
2023/01/05 12:31:52;;;;;;;170.25;123.22;;;332.80;2329.60;;;;;;5092919;28;20064;-59
2023/01/05 12:34:34;;;;;;;145.30;104.05;;;332.90;2329.60;;;;;;5092688;28;20023;-62
2023/01/05 12:37:14;;;;;;;122.40;89.28;;;332.90;2329.60;;;;;;5091834;28;20462;-62
2023/01/05 12:39:58;;;;;;;155.63;100.05;;;333.00;2329.60;;;;;;5090604;28;20089;-61
2023/01/05 12:42:43;;;;;;;251.65;178.27;;;333.10;2329.60;;;;;;5091005;28;20035;-62